sensor_id;sensor_type;location;lat;lon;timestamp;pressure;altitude;pressure_sealevel;temperature;humidity
35435;BME280;21556;55.782;37.528;2023-03-16T00:00:45;99332.66;;;5.74;100.00
35435;BME280;21556;55.782;37.528;2023-03-16T00:03:12;99321.41;;;7.40;100.00
35435;BME280;21556;55.782;37.528;2023-03-16T00:05:51;99314.06;;;8.02;100.00
35435;BME280;21556;55.782;37.528;2023-03-16T00:08:18;99314.56;;;6.39;100.00
35435;BME280;21556;55.782;37.528;2023-03-16T00:10:46;99318.47;;;7.26;100.00
35435;BME280;21556;55.782;37.528;2023-03-16T00:13:17;99321.06;;;6.55;100.00
35435;BME280;21556;55.782;37.528;2023-03-16T00:15:54;99316.53;;;6.16;100.00
35435;BME280;21556;55.782;37.528;2023-03-16T00:18:22;99305.03;;;6.73;100.00
35435;BME280;21556;55.782;37.528;2023-03-16T00:20:57;99303.69;;;7.64;100.00
35435;BME280;21556;55.782;37.528;2023-03-16T00:23:26;99293.44;;;6.62;100.00
35435;BME280;21556;55.782;37.528;2023-03-16T00:25:57;99299.56;;;6.31;100.00
35435;BME280;21556;55.782;37.528;2023-03-16T00:28:25;99306.88;;;6.12;100.00
35435;BME280;21556;55.782;37.528;2023-03-16T00:30:51;99293.81;;;6.11;100.00
35435;BME280;21556;55.782;37.528;2023-03-16T00:33:17;99297.22;;;6.40;100.00
35435;BME280;21556;55.782;37.528;2023-03-16T00:35:46;99297.28;;;6.76;100.00
35435;BME280;21556;55.782;37.528;2023-03-16T00:38:16;99296.59;;;7.57;100.00
35435;BME280;21556;55.782;37.528;2023-03-16T00:40:43;99296.16;;;7.01;100.00
35435;BME280;21556;55.782;37.528;2023-03-16T00:43:09;99290.19;;;7.07;100.00
35435;BME280;21556;55.782;37.528;2023-03-16T00:45:36;99297.50;;;6.85;100.00
35435;BME280;21556;55.782;37.528;2023-03-16T00:48:02;99295.81;;;6.87;100.00
35435;BME280;21556;55.782;37.528;2023-03-16T00:50:27;99295.28;;;6.66;100.00
35435;BME280;21556;55.782;37.528;2023-03-16T00:52:54;99300.09;;;7.20;100.00
35435;BME280;21556;55.782;37.528;2023-03-16T00:55:20;99309.09;;;6.30;100.00
35435;BME280;21556;55.782;37.528;2023-03-16T00:57:46;99308.78;;;6.18;100.00
35435;BME280;21556;55.782;37.528;2023-03-16T01:00:13;99298.75;;;6.66;100.00
35435;BME280;21556;55.782;37.528;2023-03-16T01:02:44;99308.94;;;6.90;100.00
35435;BME280;21556;55.782;37.528;2023-03-16T01:05:11;99314.22;;;6.59;100.00
35435;BME280;21556;55.782;37.528;2023-03-16T01:07:39;99308.91;;;6.56;100.00
35435;BME280;21556;55.782;37.528;2023-03-16T01:10:06;99313.47;;;6.31;100.00
35435;BME280;21556;55.782;37.528;2023-03-16T01:12:32;99310.91;;;6.33;100.00
35435;BME280;21556;55.782;37.528;2023-03-16T01:14:59;99308.38;;;6.04;100.00
35435;BME280;21556;55.782;37.528;2023-03-16T01:17:25;99319.72;;;6.38;100.00
35435;BME280;21556;55.782;37.528;2023-03-16T01:19:52;99319.59;;;5.73;100.00
35435;BME280;21556;55.782;37.528;2023-03-16T01:22:19;99314.16;;;5.94;100.00
35435;BME280;21556;55.782;37.528;2023-03-16T01:24:49;99316.31;;;6.09;100.00
35435;BME280;21556;55.782;37.528;2023-03-16T01:27:14;99315.50;;;5.81;100.00
35435;BME280;21556;55.782;37.528;2023-03-16T01:29:42;99326.47;;;6.30;100.00
35435;BME280;21556;55.782;37.528;2023-03-16T01:32:09;99316.34;;;6.40;100.00
35435;BME280;21556;55.782;37.528;2023-03-16T01:34:37;99310.81;;;6.61;100.00
35435;BME280;21556;55.782;37.528;2023-03-16T01:37:06;99325.50;;;6.58;100.00
35435;BME280;21556;55.782;37.528;2023-03-16T01:39:54;99317.66;;;6.58;100.00
35435;BME280;21556;55.782;37.528;2023-03-16T01:42:20;99322.81;;;6.56;100.00
35435;BME280;21556;55.782;37.528;2023-03-16T01:45:00;99313.16;;;6.85;100.00
35435;BME280;21556;55.782;37.528;2023-03-16T01:47:33;99319.03;;;6.77;100.00
35435;BME280;21556;55.782;37.528;2023-03-16T01:50:04;99305.69;;;7.00;100.00
35435;BME280;21556;55.782;37.528;2023-03-16T01:52:38;99315.75;;;6.85;100.00
35435;BME280;21556;55.782;37.528;2023-03-16T01:55:07;99313.06;;;6.82;100.00
35435;BME280;21556;55.782;37.528;2023-03-16T01:57:37;99320.34;;;5.69;100.00
35435;BME280;21556;55.782;37.528;2023-03-16T02:00:18;99324.44;;;5.91;100.00
35435;BME280;21556;55.782;37.528;2023-03-16T02:03:12;99323.25;;;5.79;100.00
35435;BME280;21556;55.782;37.528;2023-03-16T02:05:50;99320.94;;;5.89;100.00
35435;BME280;21556;55.782;37.528;2023-03-16T02:08:21;99320.06;;;5.31;100.00
35435;BME280;21556;55.782;37.528;2023-03-16T02:10:47;99319.47;;;5.68;100.00
35435;BME280;21556;55.782;37.528;2023-03-16T02:13:14;99322.91;;;6.27;100.00
35435;BME280;21556;55.782;37.528;2023-03-16T02:15:40;99327.59;;;6.09;100.00
35435;BME280;21556;55.782;37.528;2023-03-16T02:18:06;99324.66;;;5.97;100.00
35435;BME280;21556;55.782;37.528;2023-03-16T02:23:01;99333.63;;;5.78;100.00
35435;BME280;21556;55.782;37.528;2023-03-16T02:28:45;99325.63;;;5.72;100.00
35435;BME280;21556;55.782;37.528;2023-03-16T02:31:16;99317.63;;;6.24;100.00
35435;BME280;21556;55.782;37.528;2023-03-16T02:33:43;99320.84;;;6.16;100.00
35435;BME280;21556;55.782;37.528;2023-03-16T02:36:09;99317.41;;;6.17;100.00
35435;BME280;21556;55.782;37.528;2023-03-16T02:38:37;99319.78;;;5.50;100.00
35435;BME280;21556;55.782;37.528;2023-03-16T02:41:14;99331.13;;;5.81;100.00
35435;BME280;21556;55.782;37.528;2023-03-16T02:43:58;99325.66;;;6.02;100.00
35435;BME280;21556;55.782;37.528;2023-03-16T02:46:30;99321.34;;;6.02;100.00
35435;BME280;21556;55.782;37.528;2023-03-16T02:51:37;99306.72;;;5.77;100.00
35435;BME280;21556;55.782;37.528;2023-03-16T02:54:03;99307.22;;;5.94;100.00
35435;BME280;21556;55.782;37.528;2023-03-16T02:56:32;99304.72;;;5.97;100.00
35435;BME280;21556;55.782;37.528;2023-03-16T02:59:00;99311.69;;;5.98;100.00
35435;BME280;21556;55.782;37.528;2023-03-16T03:01:26;99301.88;;;6.20;100.00
35435;BME280;21556;55.782;37.528;2023-03-16T03:03:53;99310.47;;;5.87;100.00
35435;BME280;21556;55.782;37.528;2023-03-16T03:06:19;99306.19;;;5.89;100.00
35435;BME280;21556;55.782;37.528;2023-03-16T03:08:45;99301.00;;;5.61;100.00
35435;BME280;21556;55.782;37.528;2023-03-16T03:11:11;99316.47;;;5.85;100.00
35435;BME280;21556;55.782;37.528;2023-03-16T03:13:37;99308.63;;;6.13;100.00
35435;BME280;21556;55.782;37.528;2023-03-16T03:16:05;99315.13;;;5.97;100.00
35435;BME280;21556;55.782;37.528;2023-03-16T03:18:31;99301.34;;;6.01;100.00
35435;BME280;21556;55.782;37.528;2023-03-16T03:20:56;99293.84;;;6.12;100.00
35435;BME280;21556;55.782;37.528;2023-03-16T03:23:22;99294.72;;;5.54;100.00
35435;BME280;21556;55.782;37.528;2023-03-16T03:25:48;99286.69;;;5.75;100.00
35435;BME280;21556;55.782;37.528;2023-03-16T03:28:16;99284.94;;;6.36;100.00
35435;BME280;21556;55.782;37.528;2023-03-16T03:30:42;99289.34;;;6.38;100.00
35435;BME280;21556;55.782;37.528;2023-03-16T03:33:08;99294.34;;;6.31;100.00
35435;BME280;21556;55.782;37.528;2023-03-16T03:35:34;99291.34;;;6.17;100.00
35435;BME280;21556;55.782;37.528;2023-03-16T03:38:03;99287.88;;;6.48;100.00
35435;BME280;21556;55.782;37.528;2023-03-16T03:40:29;99275.22;;;6.63;100.00
35435;BME280;21556;55.782;37.528;2023-03-16T03:42:58;99269.66;;;6.49;100.00
35435;BME280;21556;55.782;37.528;2023-03-16T03:45:26;99262.75;;;6.50;100.00
35435;BME280;21556;55.782;37.528;2023-03-16T03:47:54;99267.84;;;6.80;100.00
35435;BME280;21556;55.782;37.528;2023-03-16T03:50:21;99264.00;;;7.02;100.00
35435;BME280;21556;55.782;37.528;2023-03-16T03:53:07;99278.50;;;6.55;100.00
35435;BME280;21556;55.782;37.528;2023-03-16T03:55:44;99288.38;;;6.68;100.00
35435;BME280;21556;55.782;37.528;2023-03-16T03:58:10;99282.53;;;6.78;100.00
35435;BME280;21556;55.782;37.528;2023-03-16T04:00:39;99284.00;;;6.67;100.00
35435;BME280;21556;55.782;37.528;2023-03-16T04:03:05;99285.34;;;6.18;100.00
35435;BME280;21556;55.782;37.528;2023-03-16T04:05:38;99285.63;;;6.62;100.00
35435;BME280;21556;55.782;37.528;2023-03-16T04:08:04;99296.06;;;6.30;100.00
35435;BME280;21556;55.782;37.528;2023-03-16T04:10:33;99291.81;;;6.32;100.00
35435;BME280;21556;55.782;37.528;2023-03-16T04:12:59;99298.09;;;6.09;100.00
35435;BME280;21556;55.782;37.528;2023-03-16T04:15:29;99289.50;;;6.13;100.00
35435;BME280;21556;55.782;37.528;2023-03-16T04:18:15;99281.44;;;6.68;100.00
35435;BME280;21556;55.782;37.528;2023-03-16T04:20:42;99281.47;;;5.75;100.00
35435;BME280;21556;55.782;37.528;2023-03-16T04:23:12;99278.41;;;6.20;100.00
35435;BME280;21556;55.782;37.528;2023-03-16T04:25:39;99282.28;;;6.02;100.00
35435;BME280;21556;55.782;37.528;2023-03-16T04:28:07;99283.22;;;6.36;100.00
35435;BME280;21556;55.782;37.528;2023-03-16T04:30:35;99281.50;;;6.37;100.00
35435;BME280;21556;55.782;37.528;2023-03-16T04:33:15;99290.69;;;6.24;100.00
35435;BME280;21556;55.782;37.528;2023-03-16T04:35:48;99291.41;;;5.88;100.00
35435;BME280;21556;55.782;37.528;2023-03-16T04:38:15;99294.59;;;6.73;100.00
35435;BME280;21556;55.782;37.528;2023-03-16T04:40:54;99292.19;;;6.47;100.00
35435;BME280;21556;55.782;37.528;2023-03-16T04:43:23;99293.63;;;6.69;100.00
35435;BME280;21556;55.782;37.528;2023-03-16T04:45:54;99286.81;;;6.74;100.00
35435;BME280;21556;55.782;37.528;2023-03-16T04:48:21;99291.84;;;6.35;100.00
35435;BME280;21556;55.782;37.528;2023-03-16T04:50:47;99303.41;;;6.45;100.00
35435;BME280;21556;55.782;37.528;2023-03-16T04:53:16;99316.16;;;5.74;100.00
35435;BME280;21556;55.782;37.528;2023-03-16T04:55:46;99311.84;;;6.03;100.00
35435;BME280;21556;55.782;37.528;2023-03-16T04:58:12;99320.78;;;6.13;100.00
35435;BME280;21556;55.782;37.528;2023-03-16T05:00:39;99320.44;;;6.00;100.00
35435;BME280;21556;55.782;37.528;2023-03-16T05:03:12;99311.41;;;6.19;100.00
35435;BME280;21556;55.782;37.528;2023-03-16T05:05:39;99318.28;;;6.49;100.00
35435;BME280;21556;55.782;37.528;2023-03-16T05:08:08;99322.25;;;6.35;100.00
35435;BME280;21556;55.782;37.528;2023-03-16T05:10:37;99321.25;;;6.63;100.00
35435;BME280;21556;55.782;37.528;2023-03-16T05:13:05;99333.59;;;6.37;100.00
35435;BME280;21556;55.782;37.528;2023-03-16T05:15:32;99337.75;;;6.30;100.00
35435;BME280;21556;55.782;37.528;2023-03-16T05:18:04;99333.97;;;5.90;100.00
35435;BME280;21556;55.782;37.528;2023-03-16T05:20:30;99335.50;;;6.12;100.00
35435;BME280;21556;55.782;37.528;2023-03-16T05:22:59;99328.88;;;5.65;100.00
35435;BME280;21556;55.782;37.528;2023-03-16T05:25:28;99330.19;;;5.79;100.00
35435;BME280;21556;55.782;37.528;2023-03-16T05:27:56;99327.78;;;5.85;100.00
35435;BME280;21556;55.782;37.528;2023-03-16T05:30:28;99330.97;;;6.05;100.00
35435;BME280;21556;55.782;37.528;2023-03-16T05:32:58;99346.38;;;5.97;100.00
35435;BME280;21556;55.782;37.528;2023-03-16T05:35:25;99340.22;;;5.95;100.00
35435;BME280;21556;55.782;37.528;2023-03-16T05:37:56;99340.16;;;5.64;100.00
35435;BME280;21556;55.782;37.528;2023-03-16T05:40:22;99335.28;;;6.03;100.00
35435;BME280;21556;55.782;37.528;2023-03-16T05:42:57;99326.16;;;6.19;100.00
35435;BME280;21556;55.782;37.528;2023-03-16T05:45:25;99322.22;;;6.33;100.00
35435;BME280;21556;55.782;37.528;2023-03-16T05:48:02;99324.19;;;6.42;100.00
35435;BME280;21556;55.782;37.528;2023-03-16T05:50:32;99327.47;;;6.03;100.00
35435;BME280;21556;55.782;37.528;2023-03-16T05:52:59;99333.63;;;6.07;100.00
35435;BME280;21556;55.782;37.528;2023-03-16T05:55:25;99337.91;;;6.05;100.00
35435;BME280;21556;55.782;37.528;2023-03-16T05:58:07;99339.75;;;6.09;100.00
35435;BME280;21556;55.782;37.528;2023-03-16T06:00:47;99336.59;;;6.19;100.00
35435;BME280;21556;55.782;37.528;2023-03-16T06:03:22;99336.47;;;6.14;100.00
35435;BME280;21556;55.782;37.528;2023-03-16T06:05:53;99335.34;;;6.06;100.00
35435;BME280;21556;55.782;37.528;2023-03-16T06:08:30;99334.63;;;6.12;100.00
35435;BME280;21556;55.782;37.528;2023-03-16T06:11:07;99330.75;;;5.97;100.00
35435;BME280;21556;55.782;37.528;2023-03-16T06:13:33;99338.97;;;5.83;100.00
35435;BME280;21556;55.782;37.528;2023-03-16T06:16:00;99338.91;;;6.10;100.00
35435;BME280;21556;55.782;37.528;2023-03-16T06:18:27;99344.31;;;5.87;100.00
35435;BME280;21556;55.782;37.528;2023-03-16T06:20:59;99347.56;;;5.80;100.00
35435;BME280;21556;55.782;37.528;2023-03-16T06:23:26;99358.59;;;6.30;100.00
35435;BME280;21556;55.782;37.528;2023-03-16T06:25:57;99365.22;;;5.90;100.00
35435;BME280;21556;55.782;37.528;2023-03-16T06:28:29;99375.63;;;5.62;100.00
35435;BME280;21556;55.782;37.528;2023-03-16T06:30:56;99370.94;;;6.36;100.00
35435;BME280;21556;55.782;37.528;2023-03-16T06:33:26;99368.47;;;5.82;100.00
35435;BME280;21556;55.782;37.528;2023-03-16T06:35:52;99373.28;;;5.98;100.00
35435;BME280;21556;55.782;37.528;2023-03-16T06:38:29;99370.97;;;6.37;100.00
35435;BME280;21556;55.782;37.528;2023-03-16T06:41:15;99367.38;;;6.34;100.00
35435;BME280;21556;55.782;37.528;2023-03-16T06:43:44;99369.53;;;5.60;100.00
35435;BME280;21556;55.782;37.528;2023-03-16T06:46:10;99371.09;;;5.83;100.00
35435;BME280;21556;55.782;37.528;2023-03-16T06:48:36;99377.50;;;5.66;100.00
35435;BME280;21556;55.782;37.528;2023-03-16T06:51:03;99364.75;;;6.32;100.00
35435;BME280;21556;55.782;37.528;2023-03-16T06:53:31;99370.19;;;6.41;100.00
35435;BME280;21556;55.782;37.528;2023-03-16T06:55:57;99373.56;;;6.37;100.00
35435;BME280;21556;55.782;37.528;2023-03-16T06:58:25;99360.28;;;6.60;100.00
35435;BME280;21556;55.782;37.528;2023-03-16T07:00:51;99358.63;;;6.63;100.00
35435;BME280;21556;55.782;37.528;2023-03-16T07:03:18;99368.88;;;6.57;100.00
35435;BME280;21556;55.782;37.528;2023-03-16T07:05:50;99367.47;;;6.68;100.00
35435;BME280;21556;55.782;37.528;2023-03-16T07:08:17;99378.03;;;6.41;100.00
35435;BME280;21556;55.782;37.528;2023-03-16T07:10:43;99357.66;;;6.60;100.00
35435;BME280;21556;55.782;37.528;2023-03-16T07:13:08;99358.25;;;6.49;100.00
35435;BME280;21556;55.782;37.528;2023-03-16T07:15:37;99352.91;;;6.77;100.00
35435;BME280;21556;55.782;37.528;2023-03-16T07:18:05;99369.94;;;6.02;100.00
35435;BME280;21556;55.782;37.528;2023-03-16T07:20:31;99375.31;;;5.79;100.00
35435;BME280;21556;55.782;37.528;2023-03-16T07:23:00;99372.31;;;5.94;100.00
35435;BME280;21556;55.782;37.528;2023-03-16T07:25:25;99378.81;;;5.80;100.00
35435;BME280;21556;55.782;37.528;2023-03-16T07:27:53;99372.69;;;6.07;100.00
35435;BME280;21556;55.782;37.528;2023-03-16T07:30:25;99370.59;;;6.88;100.00
35435;BME280;21556;55.782;37.528;2023-03-16T07:32:51;99360.63;;;6.72;100.00
35435;BME280;21556;55.782;37.528;2023-03-16T07:35:20;99361.88;;;6.55;100.00
35435;BME280;21556;55.782;37.528;2023-03-16T07:37:46;99365.41;;;6.25;100.00
35435;BME280;21556;55.782;37.528;2023-03-16T07:40:13;99360.97;;;6.21;100.00
35435;BME280;21556;55.782;37.528;2023-03-16T07:42:40;99357.59;;;6.25;100.00
35435;BME280;21556;55.782;37.528;2023-03-16T07:45:25;99352.22;;;6.50;100.00
35435;BME280;21556;55.782;37.528;2023-03-16T07:47:51;99354.47;;;6.38;100.00
35435;BME280;21556;55.782;37.528;2023-03-16T07:50:32;99354.66;;;6.44;100.00
35435;BME280;21556;55.782;37.528;2023-03-16T07:52:58;99349.13;;;6.32;100.00
35435;BME280;21556;55.782;37.528;2023-03-16T07:55:24;99344.13;;;6.73;100.00
35435;BME280;21556;55.782;37.528;2023-03-16T07:57:51;99337.13;;;6.39;100.00
35435;BME280;21556;55.782;37.528;2023-03-16T08:00:27;99340.75;;;6.77;100.00
35435;BME280;21556;55.782;37.528;2023-03-16T08:02:53;99344.75;;;6.64;100.00
35435;BME280;21556;55.782;37.528;2023-03-16T08:05:20;99342.56;;;6.46;100.00
35435;BME280;21556;55.782;37.528;2023-03-16T08:07:52;99343.75;;;6.59;100.00
35435;BME280;21556;55.782;37.528;2023-03-16T08:10:22;99343.09;;;6.68;100.00
35435;BME280;21556;55.782;37.528;2023-03-16T08:12:55;99351.69;;;6.64;100.00
35435;BME280;21556;55.782;37.528;2023-03-16T08:15:20;99357.09;;;6.70;100.00
35435;BME280;21556;55.782;37.528;2023-03-16T08:17:47;99363.25;;;6.42;100.00
35435;BME280;21556;55.782;37.528;2023-03-16T08:20:20;99373.84;;;6.46;100.00
35435;BME280;21556;55.782;37.528;2023-03-16T08:22:46;99362.97;;;6.63;100.00
35435;BME280;21556;55.782;37.528;2023-03-16T08:25:17;99364.75;;;6.32;100.00
35435;BME280;21556;55.782;37.528;2023-03-16T08:27:56;99368.25;;;6.34;100.00
35435;BME280;21556;55.782;37.528;2023-03-16T08:30:23;99374.00;;;5.65;100.00
35435;BME280;21556;55.782;37.528;2023-03-16T08:33:06;99363.34;;;5.56;100.00
35435;BME280;21556;55.782;37.528;2023-03-16T08:35:32;99364.38;;;5.63;100.00
35435;BME280;21556;55.782;37.528;2023-03-16T08:37:58;99356.88;;;5.72;100.00
35435;BME280;21556;55.782;37.528;2023-03-16T08:40:24;99359.13;;;5.88;100.00
35435;BME280;21556;55.782;37.528;2023-03-16T08:42:56;99355.44;;;6.42;100.00
35435;BME280;21556;55.782;37.528;2023-03-16T08:45:26;99359.53;;;6.32;100.00
35435;BME280;21556;55.782;37.528;2023-03-16T08:47:52;99363.50;;;5.91;100.00
35435;BME280;21556;55.782;37.528;2023-03-16T08:50:19;99354.84;;;6.20;100.00
35435;BME280;21556;55.782;37.528;2023-03-16T08:52:46;99355.75;;;6.53;100.00
35435;BME280;21556;55.782;37.528;2023-03-16T08:55:13;99362.31;;;6.71;100.00
35435;BME280;21556;55.782;37.528;2023-03-16T08:57:40;99366.41;;;6.30;100.00
35435;BME280;21556;55.782;37.528;2023-03-16T09:00:10;99368.34;;;6.37;100.00
35435;BME280;21556;55.782;37.528;2023-03-16T09:02:41;99370.91;;;6.06;100.00
35435;BME280;21556;55.782;37.528;2023-03-16T09:05:09;99371.09;;;5.83;100.00
35435;BME280;21556;55.782;37.528;2023-03-16T09:07:36;99373.75;;;5.85;100.00
35435;BME280;21556;55.782;37.528;2023-03-16T09:10:04;99375.78;;;5.93;100.00
35435;BME280;21556;55.782;37.528;2023-03-16T09:12:34;99376.66;;;6.24;100.00
35435;BME280;21556;55.782;37.528;2023-03-16T09:15:00;99369.59;;;6.20;100.00
35435;BME280;21556;55.782;37.528;2023-03-16T09:17:32;99368.63;;;6.46;100.00
35435;BME280;21556;55.782;37.528;2023-03-16T09:19:59;99365.00;;;6.11;100.00
35435;BME280;21556;55.782;37.528;2023-03-16T09:22:25;99367.41;;;6.03;100.00
35435;BME280;21556;55.782;37.528;2023-03-16T09:24:53;99362.09;;;6.00;100.00
35435;BME280;21556;55.782;37.528;2023-03-16T09:27:19;99369.69;;;6.23;100.00
35435;BME280;21556;55.782;37.528;2023-03-16T09:29:48;99363.94;;;6.35;100.00
35435;BME280;21556;55.782;37.528;2023-03-16T09:32:15;99365.22;;;6.19;100.00
35435;BME280;21556;55.782;37.528;2023-03-16T09:34:41;99358.44;;;6.56;100.00
35435;BME280;21556;55.782;37.528;2023-03-16T09:37:07;99370.75;;;6.30;100.00
35435;BME280;21556;55.782;37.528;2023-03-16T09:39:34;99361.78;;;6.20;100.00
35435;BME280;21556;55.782;37.528;2023-03-16T09:42:35;99366.94;;;6.48;100.00
35435;BME280;21556;55.782;37.528;2023-03-16T09:45:13;99363.06;;;6.34;100.00
35435;BME280;21556;55.782;37.528;2023-03-16T09:47:42;99354.16;;;6.26;100.00
35435;BME280;21556;55.782;37.528;2023-03-16T09:50:27;99355.44;;;6.42;100.00
35435;BME280;21556;55.782;37.528;2023-03-16T09:53:23;99354.38;;;6.67;100.00
35435;BME280;21556;55.782;37.528;2023-03-16T09:58:23;99355.59;;;6.80;100.00
35435;BME280;21556;55.782;37.528;2023-03-16T10:01:05;99355.25;;;6.66;100.00
35435;BME280;21556;55.782;37.528;2023-03-16T10:12:21;99363.56;;;6.53;100.00
35435;BME280;21556;55.782;37.528;2023-03-16T10:17:39;99371.56;;;6.59;100.00
35435;BME280;21556;55.782;37.528;2023-03-16T10:20:14;99368.50;;;6.75;100.00
35435;BME280;21556;55.782;37.528;2023-03-16T10:22:44;99365.38;;;6.55;100.00
35435;BME280;21556;55.782;37.528;2023-03-16T10:27:51;99373.22;;;6.25;100.00
35435;BME280;21556;55.782;37.528;2023-03-16T10:30:30;99369.50;;;6.17;100.00
35435;BME280;21556;55.782;37.528;2023-03-16T10:33:11;99365.47;;;6.28;100.00
35435;BME280;21556;55.782;37.528;2023-03-16T10:38:43;99364.38;;;6.50;100.00
35435;BME280;21556;55.782;37.528;2023-03-16T10:41:36;99368.16;;;6.30;100.00
35435;BME280;21556;55.782;37.528;2023-03-16T10:44:38;99378.13;;;6.14;100.00
35435;BME280;21556;55.782;37.528;2023-03-16T10:47:05;99385.84;;;6.11;100.00
35435;BME280;21556;55.782;37.528;2023-03-16T10:49:42;99376.44;;;6.16;100.00
35435;BME280;21556;55.782;37.528;2023-03-16T10:52:43;99379.78;;;6.12;100.00
35435;BME280;21556;55.782;37.528;2023-03-16T10:55:27;99378.75;;;6.36;100.00
35435;BME280;21556;55.782;37.528;2023-03-16T10:57:59;99376.16;;;6.37;100.00
35435;BME280;21556;55.782;37.528;2023-03-16T11:00:37;99374.72;;;6.47;100.00
35435;BME280;21556;55.782;37.528;2023-03-16T11:03:26;99376.38;;;6.45;100.00
35435;BME280;21556;55.782;37.528;2023-03-16T11:06:04;99375.41;;;6.41;100.00
35435;BME280;21556;55.782;37.528;2023-03-16T11:08:37;99377.34;;;6.48;100.00
35435;BME280;21556;55.782;37.528;2023-03-16T11:11:15;99385.13;;;6.47;100.00
35435;BME280;21556;55.782;37.528;2023-03-16T11:13:46;99372.31;;;6.55;100.00
35435;BME280;21556;55.782;37.528;2023-03-16T11:19:16;99379.31;;;6.25;100.00
35435;BME280;21556;55.782;37.528;2023-03-16T11:22:24;99380.56;;;6.71;100.00
35435;BME280;21556;55.782;37.528;2023-03-16T11:27:33;99368.53;;;6.43;100.00
35435;BME280;21556;55.782;37.528;2023-03-16T11:32:54;99378.56;;;6.30;100.00
35435;BME280;21556;55.782;37.528;2023-03-16T11:35:31;99379.84;;;6.14;100.00
35435;BME280;21556;55.782;37.528;2023-03-16T11:38:16;99377.72;;;6.62;100.00
35435;BME280;21556;55.782;37.528;2023-03-16T11:48:46;99393.06;;;6.51;100.00
35435;BME280;21556;55.782;37.528;2023-03-16T11:57:02;99401.09;;;6.91;100.00
35435;BME280;21556;55.782;37.528;2023-03-16T12:00:06;99407.59;;;6.73;100.00
35435;BME280;21556;55.782;37.528;2023-03-16T12:08:09;99405.78;;;7.04;100.00
35435;BME280;21556;55.782;37.528;2023-03-16T12:10:58;99396.72;;;7.23;100.00
35435;BME280;21556;55.782;37.528;2023-03-16T12:16:14;99410.53;;;7.19;100.00
35435;BME280;21556;55.782;37.528;2023-03-16T12:18:46;99406.91;;;7.48;100.00
35435;BME280;21556;55.782;37.528;2023-03-16T12:21:19;99407.19;;;7.61;100.00
35435;BME280;21556;55.782;37.528;2023-03-16T12:23:54;99401.56;;;7.09;100.00
35435;BME280;21556;55.782;37.528;2023-03-16T12:26:23;99400.81;;;7.15;100.00
35435;BME280;21556;55.782;37.528;2023-03-16T12:28:51;99404.50;;;7.58;100.00
35435;BME280;21556;55.782;37.528;2023-03-16T12:31:34;99398.81;;;7.76;100.00
35435;BME280;21556;55.782;37.528;2023-03-16T12:34:24;99414.75;;;7.48;100.00
35435;BME280;21556;55.782;37.528;2023-03-16T12:37:24;99415.56;;;7.47;100.00
35435;BME280;21556;55.782;37.528;2023-03-16T12:42:59;99417.88;;;7.35;100.00
35435;BME280;21556;55.782;37.528;2023-03-16T12:48:31;99429.69;;;7.21;100.00
35435;BME280;21556;55.782;37.528;2023-03-16T12:51:00;99424.19;;;7.09;100.00
35435;BME280;21556;55.782;37.528;2023-03-16T12:53:43;99427.84;;;6.84;100.00
35435;BME280;21556;55.782;37.528;2023-03-16T12:56:15;99444.19;;;6.78;100.00
35435;BME280;21556;55.782;37.528;2023-03-16T12:58:46;99441.25;;;6.66;100.00
35435;BME280;21556;55.782;37.528;2023-03-16T13:01:15;99444.72;;;6.65;100.00
35435;BME280;21556;55.782;37.528;2023-03-16T13:03:46;99445.41;;;6.59;100.00
35435;BME280;21556;55.782;37.528;2023-03-16T13:06:22;99444.53;;;6.59;100.00
35435;BME280;21556;55.782;37.528;2023-03-16T13:08:57;99443.75;;;6.61;100.00
35435;BME280;21556;55.782;37.528;2023-03-16T13:11:39;99441.84;;;6.56;100.00
35435;BME280;21556;55.782;37.528;2023-03-16T13:14:07;99452.44;;;6.93;100.00
35435;BME280;21556;55.782;37.528;2023-03-16T13:16:37;99448.03;;;6.59;100.00
35435;BME280;21556;55.782;37.528;2023-03-16T13:19:26;99441.50;;;6.43;100.00
35435;BME280;21556;55.782;37.528;2023-03-16T13:22:16;99438.97;;;6.78;100.00
35435;BME280;21556;55.782;37.528;2023-03-16T13:24:49;99436.13;;;6.69;100.00
35435;BME280;21556;55.782;37.528;2023-03-16T13:27:29;99431.59;;;6.62;100.00
35435;BME280;21556;55.782;37.528;2023-03-16T13:30:00;99442.94;;;6.64;100.00
35435;BME280;21556;55.782;37.528;2023-03-16T13:32:31;99440.88;;;6.52;100.00
35435;BME280;21556;55.782;37.528;2023-03-16T13:34:59;99443.28;;;6.46;100.00
35435;BME280;21556;55.782;37.528;2023-03-16T13:37:29;99437.41;;;6.53;100.00
35435;BME280;21556;55.782;37.528;2023-03-16T13:39:59;99434.88;;;6.55;100.00
35435;BME280;21556;55.782;37.528;2023-03-16T13:42:29;99438.13;;;6.47;100.00
35435;BME280;21556;55.782;37.528;2023-03-16T13:44:57;99436.09;;;6.37;100.00
35435;BME280;21556;55.782;37.528;2023-03-16T13:47:25;99435.56;;;6.49;100.00
35435;BME280;21556;55.782;37.528;2023-03-16T13:49:57;99438.00;;;6.43;100.00
35435;BME280;21556;55.782;37.528;2023-03-16T13:52:31;99442.25;;;6.71;100.00
35435;BME280;21556;55.782;37.528;2023-03-16T13:54:59;99435.41;;;6.74;100.00
35435;BME280;21556;55.782;37.528;2023-03-16T13:57:29;99433.66;;;7.07;100.00
35435;BME280;21556;55.782;37.528;2023-03-16T14:00:04;99438.31;;;7.18;100.00
35435;BME280;21556;55.782;37.528;2023-03-16T14:02:40;99436.75;;;6.60;100.00
35435;BME280;21556;55.782;37.528;2023-03-16T14:05:10;99445.91;;;6.46;100.00
35435;BME280;21556;55.782;37.528;2023-03-16T14:07:37;99447.81;;;6.51;100.00
35435;BME280;21556;55.782;37.528;2023-03-16T14:10:05;99442.84;;;6.92;100.00
35435;BME280;21556;55.782;37.528;2023-03-16T14:12:31;99436.66;;;7.20;100.00
35435;BME280;21556;55.782;37.528;2023-03-16T14:14:57;99442.13;;;6.65;100.00